KENW/ENW METAR and TAF weather

Enter ICAO airport designator
Station Type Date Time Source
KENW METAR 2021/05/12 01:53 UTC NOAA

KENW 120153Z 00000KT 10SM CLR 06/M03 A3040 RMK AO2 SLP298 T00611028


Station Type Date Time Source
KENW Decoded METAR 2021/05/12 01:53 UTC NOAA

KENOSHA REGIONAL AIRPORT, WI, United States (KENW) 42-36N 087-56W 219M
May 11, 2021 - 09:53 PM EDT / 2021.05.12 0153 UTC
Wind: Calm:0
Visibility: 10 mile(s):0
Sky conditions: clear
Temperature: 43.0 F (6.1 C)
Dew Point: 27.0 F (-2.8 C)
Relative Humidity: 52%
Pressure (altimeter): 30.4 in. Hg (1029 hPa)
ob: KENW 120153Z 00000KT 10SM CLR 06/M03 A3040 RMK AO2 SLP298 T00611028
cycle: 2

Station Type Date Time Source
KENW TAF 2021/05/11 21:09 UTC NOAA

TAF
AMD KENW 112107Z 1121/1218 06012KT P6SM FEW060
FM120000 10005KT P6SM SKC
FM121700 11008KT P6SM FEW060

Example: see airport list